createdAt,value
2018-05-11T00:01:14.295Z,15.51
2018-05-11T00:03:41.941Z,15.49
2018-05-11T00:06:09.573Z,15.49
2018-05-11T00:08:37.221Z,15.49
2018-05-11T00:11:04.966Z,15.55
2018-05-11T00:13:32.775Z,15.61
2018-05-11T00:16:00.503Z,15.57
2018-05-11T00:18:28.073Z,15.61
2018-05-11T00:20:55.757Z,15.57
2018-05-11T00:23:23.366Z,15.52
2018-05-11T00:25:51.276Z,15.49
2018-05-11T00:28:19.085Z,15.48
2018-05-11T00:30:46.633Z,15.40
2018-05-11T00:33:14.215Z,15.40
2018-05-11T00:35:41.921Z,15.44
2018-05-11T00:38:09.637Z,15.42
2018-05-11T00:40:37.319Z,15.44
2018-05-11T00:43:05.018Z,15.44
2018-05-11T00:45:32.724Z,15.33
2018-05-11T00:48:00.540Z,15.43
2018-05-11T00:50:28.120Z,15.43
2018-05-11T00:52:55.841Z,15.44
2018-05-11T00:55:35.237Z,15.46
2018-05-11T00:58:02.845Z,15.45
2018-05-11T01:00:30.671Z,15.47
2018-05-11T01:02:58.477Z,15.50
2018-05-11T01:05:26.170Z,15.50
2018-05-11T01:07:53.745Z,15.49
2018-05-11T01:10:21.334Z,15.47
2018-05-11T01:12:49.163Z,15.47
2018-05-11T01:15:16.740Z,15.45
2018-05-11T01:17:44.396Z,15.47
2018-05-11T01:20:12.098Z,15.43
2018-05-11T01:22:39.668Z,15.35
2018-05-11T01:25:07.300Z,15.36
2018-05-11T01:27:35.204Z,15.28
2018-05-11T01:30:02.848Z,15.30
2018-05-11T01:32:30.582Z,15.30
2018-05-11T01:34:58.145Z,15.33
2018-05-11T01:37:25.701Z,15.38
2018-05-11T01:39:53.307Z,15.43
2018-05-11T01:42:20.944Z,15.40
2018-05-11T01:44:48.556Z,15.44
2018-05-11T01:47:16.316Z,15.43
2018-05-11T01:49:43.929Z,15.36
2018-05-11T01:52:11.538Z,15.41
2018-05-11T01:54:39.120Z,15.43
2018-05-11T01:57:06.969Z,15.39
2018-05-11T01:59:34.600Z,15.41
2018-05-11T02:02:02.327Z,15.38
2018-05-11T02:04:30.144Z,15.29
2018-05-11T02:06:57.937Z,15.13
2018-05-11T02:09:25.516Z,15.16
2018-05-11T02:11:53.159Z,15.19
2018-05-11T02:14:20.718Z,15.18
2018-05-11T02:16:48.277Z,15.19
2018-05-11T02:19:15.879Z,15.20
2018-05-11T02:21:43.427Z,15.21
2018-05-11T02:24:11.288Z,15.22
2018-05-11T02:26:38.884Z,15.19
2018-05-11T02:29:06.586Z,15.21
2018-05-11T02:31:34.157Z,15.23
2018-05-11T02:34:01.732Z,15.23
2018-05-11T02:36:29.536Z,15.27
2018-05-11T02:38:57.376Z,15.30
2018-05-11T02:41:25.219Z,15.35
2018-05-11T02:43:53.035Z,15.30
2018-05-11T02:46:20.853Z,15.32
2018-05-11T02:48:48.656Z,15.32
2018-05-11T02:51:16.490Z,15.37
2018-05-11T02:53:44.059Z,15.33
2018-05-11T02:56:11.623Z,15.39
2018-05-11T02:58:39.201Z,15.43
2018-05-11T03:01:07.655Z,15.45
2018-05-11T03:03:35.483Z,15.43
2018-05-11T03:06:03.161Z,15.45
2018-05-11T03:08:30.905Z,15.47
2018-05-11T03:10:58.506Z,15.53
2018-05-11T03:13:26.088Z,15.46
2018-05-11T03:15:53.661Z,15.46
2018-05-11T03:18:21.885Z,15.48
2018-05-11T03:20:49.614Z,15.49
2018-05-11T03:23:17.251Z,15.53
2018-05-11T03:25:44.961Z,15.54
2018-05-11T03:28:12.522Z,15.53
2018-05-11T03:30:40.255Z,15.55
2018-05-11T03:33:07.971Z,15.52
2018-05-11T03:35:35.720Z,15.59
2018-05-11T03:38:03.317Z,15.61
2018-05-11T03:40:30.954Z,15.64
2018-05-11T03:42:58.535Z,15.70
2018-05-11T03:45:26.185Z,15.69
2018-05-11T03:47:54.014Z,15.68
2018-05-11T03:50:21.621Z,15.69
2018-05-11T03:52:49.200Z,15.70
2018-05-11T03:55:16.774Z,15.77
2018-05-11T03:57:44.584Z,15.79
2018-05-11T04:00:12.156Z,15.81
2018-05-11T04:02:51.571Z,15.83
2018-05-11T04:05:30.786Z,15.83
2018-05-11T04:08:10.379Z,15.77
2018-05-11T04:10:38.812Z,15.75
2018-05-11T04:13:06.660Z,15.74
2018-05-11T04:15:34.205Z,15.74
2018-05-11T04:18:01.846Z,15.80
2018-05-11T04:20:29.421Z,15.88
2018-05-11T04:22:57.082Z,15.88
2018-05-11T04:25:24.716Z,15.77
2018-05-11T04:27:52.334Z,15.74
2018-05-11T04:30:20.198Z,15.69
2018-05-11T04:32:47.782Z,15.70
2018-05-11T04:35:15.352Z,15.68
2018-05-11T04:37:42.931Z,15.74
2018-05-11T04:40:10.719Z,15.75
2018-05-11T04:42:38.537Z,15.82
2018-05-11T04:45:06.109Z,15.86
2018-05-11T04:47:33.681Z,15.97
2018-05-11T04:50:01.272Z,16.05
2018-05-11T04:52:28.840Z,16.13
2018-05-11T04:54:56.420Z,16.20
2018-05-11T04:57:23.980Z,16.24
2018-05-11T04:59:51.611Z,16.29
2018-05-11T05:02:19.226Z,16.33
2018-05-11T05:04:46.821Z,16.45
2018-05-11T05:07:14.396Z,16.58
2018-05-11T05:09:41.982Z,16.63
2018-05-11T05:12:09.557Z,16.58
2018-05-11T05:14:37.145Z,16.50
2018-05-11T05:17:04.766Z,16.54
2018-05-11T05:19:32.588Z,16.54
2018-05-11T05:22:00.381Z,16.53
2018-05-11T05:24:28.142Z,16.51
2018-05-11T05:26:55.960Z,16.43
2018-05-11T05:29:23.673Z,16.44
2018-05-11T05:31:51.371Z,16.49
2018-05-11T05:34:19.162Z,16.56
2018-05-11T05:36:46.734Z,16.62
2018-05-11T05:39:14.438Z,16.76
2018-05-11T05:41:41.991Z,17.03
2018-05-11T05:44:09.757Z,17.23
2018-05-11T05:46:37.352Z,17.34
2018-05-11T05:49:05.042Z,17.41
2018-05-11T05:51:32.645Z,17.37
2018-05-11T05:54:00.226Z,17.44
2018-05-11T05:56:28.078Z,17.54
2018-05-11T05:58:55.902Z,17.72
2018-05-11T06:01:23.633Z,17.83
2018-05-11T06:03:51.260Z,17.82
2018-05-11T06:06:19.053Z,17.81
2018-05-11T06:08:46.625Z,17.55
2018-05-11T06:11:14.273Z,17.48
2018-05-11T06:13:42.007Z,17.34
2018-05-11T06:16:09.629Z,17.29
2018-05-11T06:18:37.204Z,17.41
2018-05-11T06:21:05.059Z,17.56
2018-05-11T06:23:32.880Z,17.66
2018-05-11T06:26:00.477Z,17.79
2018-05-11T06:28:28.092Z,17.93
2018-05-11T06:30:55.747Z,18.15
2018-05-11T06:33:23.512Z,18.28
2018-05-11T06:35:51.231Z,18.52
2018-05-11T06:38:18.801Z,18.69
2018-05-11T06:40:46.607Z,18.93
2018-05-11T06:43:14.425Z,19.09
2018-05-11T06:45:41.988Z,19.25
2018-05-11T06:48:09.560Z,19.49
2018-05-11T06:50:37.144Z,19.64
2018-05-11T06:53:04.765Z,19.83
2018-05-11T06:55:32.356Z,19.96
2018-05-11T06:58:00.025Z,20.26
2018-05-11T07:00:27.602Z,20.53
2018-05-11T07:02:55.368Z,20.88
2018-05-11T07:05:23.077Z,21.04
2018-05-11T07:07:50.812Z,21.54
2018-05-11T07:10:18.623Z,22.67
2018-05-11T07:12:46.184Z,23.35
2018-05-11T07:15:13.921Z,24.00
2018-05-11T07:17:41.779Z,24.16
2018-05-11T07:20:09.499Z,24.12
2018-05-11T07:22:37.107Z,24.71
2018-05-11T07:25:04.705Z,24.86
2018-05-11T07:27:32.260Z,23.69
2018-05-11T07:29:59.869Z,23.63
2018-05-11T07:32:27.476Z,23.10
2018-05-11T07:34:55.147Z,23.76
2018-05-11T07:37:22.649Z,24.19
2018-05-11T07:39:50.443Z,24.39
2018-05-11T07:42:18.069Z,24.13
2018-05-11T07:44:45.667Z,22.99
2018-05-11T07:47:13.228Z,22.31
2018-05-11T07:49:40.858Z,22.07
2018-05-11T07:52:08.631Z,22.38
2018-05-11T07:54:36.189Z,22.17
2018-05-11T07:57:05.232Z,22.08
2018-05-11T07:59:32.785Z,22.63
2018-05-11T08:02:00.341Z,23.32
2018-05-11T08:04:27.934Z,23.24
2018-05-11T08:06:55.742Z,23.77
2018-05-11T08:09:23.316Z,24.17
2018-05-11T08:11:51.079Z,24.80
2018-05-11T08:14:18.918Z,25.20
2018-05-11T08:16:46.506Z,25.34
2018-05-11T08:19:14.233Z,25.07
2018-05-11T08:21:41.961Z,24.81
2018-05-11T08:24:09.537Z,24.72
2018-05-11T08:26:37.143Z,24.96
2018-05-11T08:29:04.908Z,24.40
2018-05-11T08:31:32.466Z,23.49
2018-05-11T08:34:00.211Z,23.06
2018-05-11T08:36:28.065Z,22.63
2018-05-11T08:38:55.881Z,22.24
2018-05-11T08:41:23.456Z,21.64
2018-05-11T08:43:51.025Z,21.24
2018-05-11T08:46:18.594Z,20.87
2018-05-11T08:48:46.173Z,20.62
2018-05-11T08:51:13.729Z,20.45
2018-05-11T08:53:41.379Z,20.29
2018-05-11T08:56:09.208Z,20.17
2018-05-11T08:58:37.026Z,20.15
2018-05-11T09:01:04.637Z,20.27
2018-05-11T09:03:32.212Z,20.57
2018-05-11T09:05:59.874Z,20.85
2018-05-11T09:08:27.699Z,21.10
2018-05-11T09:10:55.529Z,21.15
2018-05-11T09:13:23.104Z,21.29
2018-05-11T09:15:51.551Z,21.22
2018-05-11T09:18:19.161Z,21.33
2018-05-11T09:20:46.741Z,21.57
2018-05-11T09:23:14.312Z,21.82
2018-05-11T09:25:41.897Z,21.99
2018-05-11T09:28:09.476Z,22.36
2018-05-11T09:30:37.263Z,22.43
2018-05-11T09:33:04.872Z,22.32
2018-05-11T09:35:32.701Z,22.12
2018-05-11T09:38:00.520Z,21.99
2018-05-11T09:40:28.246Z,21.86
2018-05-11T09:42:55.808Z,21.57
2018-05-11T09:45:23.573Z,21.47
2018-05-11T09:47:51.140Z,21.35
2018-05-11T09:50:18.748Z,21.24
2018-05-11T09:52:46.320Z,21.14
2018-05-11T09:55:14.145Z,21.13
2018-05-11T09:57:41.705Z,21.15
2018-05-11T10:00:09.367Z,21.32
2018-05-11T10:02:36.917Z,21.69
2018-05-11T10:05:04.721Z,22.44
2018-05-11T10:07:32.291Z,23.02
2018-05-11T10:10:00.020Z,23.37
2018-05-11T10:12:27.664Z,23.81
2018-05-11T10:14:55.243Z,23.71
2018-05-11T10:17:22.814Z,24.07
2018-05-11T10:19:50.416Z,23.97
2018-05-11T10:22:18.246Z,24.72
2018-05-11T10:24:45.852Z,25.37
2018-05-11T10:27:13.680Z,24.96
2018-05-11T10:29:41.510Z,24.53
2018-05-11T10:32:09.318Z,23.87
2018-05-11T10:34:37.231Z,22.93
2018-05-11T10:37:04.772Z,22.34
2018-05-11T10:39:32.572Z,22.23
2018-05-11T10:42:00.133Z,22.08
2018-05-11T10:44:27.709Z,21.64
2018-05-11T10:46:55.526Z,21.48
2018-05-11T10:49:23.288Z,21.35
2018-05-11T10:51:51.065Z,21.36
2018-05-11T10:54:18.653Z,21.08
2018-05-11T10:56:46.280Z,20.93
2018-05-11T10:59:14.119Z,20.74
2018-05-11T11:01:41.964Z,20.60
2018-05-11T11:04:09.757Z,20.60
2018-05-11T11:06:37.589Z,20.63
2018-05-11T11:09:06.606Z,20.60
2018-05-11T11:11:35.651Z,20.57
2018-05-11T11:14:03.406Z,20.43
2018-05-11T11:16:30.977Z,20.57
2018-05-11T11:18:58.779Z,20.64
2018-05-11T11:21:26.366Z,20.64
2018-05-11T11:23:54.214Z,20.50
2018-05-11T11:26:21.781Z,20.29
2018-05-11T11:28:49.439Z,20.11
2018-05-11T11:31:17.266Z,19.96
2018-05-11T11:33:44.876Z,19.95
2018-05-11T11:36:12.530Z,20.01
2018-05-11T11:38:40.322Z,19.97
2018-05-11T11:41:08.070Z,19.94
2018-05-11T11:43:35.736Z,19.95
2018-05-11T11:46:03.581Z,19.95
2018-05-11T11:48:31.160Z,20.02
2018-05-11T11:50:58.721Z,20.14
2018-05-11T11:53:26.531Z,20.17
2018-05-11T11:55:54.129Z,20.31
2018-05-11T11:58:21.768Z,20.42
2018-05-11T12:00:49.353Z,20.55
2018-05-11T12:03:16.921Z,20.73
2018-05-11T12:05:44.500Z,20.92
2018-05-11T12:08:12.073Z,21.05
2018-05-11T12:10:39.658Z,21.12
2018-05-11T12:13:07.225Z,21.25
2018-05-11T12:15:34.868Z,21.27
2018-05-11T12:18:02.610Z,21.24
2018-05-11T12:20:30.388Z,21.32
2018-05-11T12:22:58.149Z,21.54
2018-05-11T12:25:25.709Z,21.88
2018-05-11T12:27:53.289Z,22.06
2018-05-11T12:30:20.886Z,22.29
2018-05-11T12:32:48.719Z,22.45
2018-05-11T12:35:16.282Z,22.73
2018-05-11T12:37:44.057Z,22.88
2018-05-11T12:40:11.874Z,23.10
2018-05-11T12:42:39.561Z,23.20
2018-05-11T12:45:07.414Z,23.23
2018-05-11T12:47:35.014Z,23.39
2018-05-11T12:50:02.849Z,23.55
2018-05-11T12:52:30.666Z,23.79
2018-05-11T12:54:58.485Z,23.93
2018-05-11T12:57:26.308Z,24.07
2018-05-11T12:59:53.873Z,24.36
2018-05-11T13:02:21.560Z,24.15
2018-05-11T13:04:49.126Z,24.09
2018-05-11T13:07:16.855Z,23.78
2018-05-11T13:09:44.364Z,23.58
2018-05-11T13:12:11.919Z,23.24
2018-05-11T13:14:39.729Z,23.29
2018-05-11T13:17:07.338Z,23.67
2018-05-11T13:19:34.929Z,23.95
2018-05-11T13:22:02.586Z,24.14
2018-05-11T13:24:30.175Z,24.21
2018-05-11T13:26:57.815Z,24.18
2018-05-11T13:29:25.368Z,24.23
2018-05-11T13:31:52.949Z,24.37
2018-05-11T13:34:20.641Z,24.17
2018-05-11T13:36:48.229Z,24.19
2018-05-11T13:39:15.802Z,24.29
2018-05-11T13:41:43.630Z,24.44
2018-05-11T13:44:11.349Z,24.51
2018-05-11T13:46:38.933Z,24.44
2018-05-11T13:49:06.685Z,24.58
2018-05-11T13:51:34.282Z,24.57
2018-05-11T13:54:01.841Z,24.27
2018-05-11T13:56:29.497Z,24.10
2018-05-11T13:58:57.029Z,24.04
2018-05-11T14:01:24.655Z,24.29
2018-05-11T14:03:52.471Z,24.52
2018-05-11T14:06:20.313Z,24.67
2018-05-11T14:08:48.016Z,24.53
2018-05-11T14:11:15.613Z,24.37
2018-05-11T14:13:43.464Z,24.39
2018-05-11T14:16:11.029Z,24.44
2018-05-11T14:18:38.602Z,24.55
2018-05-11T14:21:06.161Z,24.55
2018-05-11T14:23:33.826Z,24.61
2018-05-11T14:26:01.457Z,24.84
2018-05-11T14:28:29.044Z,24.93
2018-05-11T14:30:56.618Z,25.00
2018-05-11T14:33:24.207Z,25.18
2018-05-11T14:35:51.780Z,25.09
2018-05-11T14:38:19.438Z,25.18
2018-05-11T14:40:47.127Z,25.48
2018-05-11T14:43:14.758Z,25.70
2018-05-11T14:45:42.342Z,25.78
2018-05-11T14:48:10.008Z,25.15
2018-05-11T14:50:37.844Z,24.94
2018-05-11T14:53:05.572Z,25.16
2018-05-11T14:55:33.150Z,25.26
2018-05-11T14:58:00.745Z,25.11
2018-05-11T15:00:28.380Z,25.07
2018-05-11T15:02:55.962Z,25.15
2018-05-11T15:05:23.551Z,25.16
2018-05-11T15:07:51.339Z,25.02
2018-05-11T15:10:18.922Z,24.94
2018-05-11T15:12:46.513Z,24.89
2018-05-11T15:15:14.317Z,24.70
2018-05-11T15:17:42.026Z,24.63
2018-05-11T15:20:09.597Z,24.40
2018-05-11T15:22:37.167Z,24.43
2018-05-11T15:25:04.864Z,24.18
2018-05-11T15:27:32.463Z,24.05
2018-05-11T15:30:00.188Z,23.64
2018-05-11T15:32:27.763Z,23.54
2018-05-11T15:34:55.405Z,23.56
2018-05-11T15:37:23.139Z,23.47
2018-05-11T15:39:50.753Z,23.33
2018-05-11T15:42:18.473Z,23.24
2018-05-11T15:44:46.079Z,23.14
2018-05-11T15:47:13.672Z,23.09
2018-05-11T15:49:41.470Z,22.99
2018-05-11T15:52:09.097Z,23.05
2018-05-11T15:54:36.905Z,23.12
2018-05-11T15:57:04.725Z,23.18
2018-05-11T15:59:32.309Z,23.24
2018-05-11T16:01:59.888Z,23.26
2018-05-11T16:04:27.527Z,23.34
2018-05-11T16:06:55.124Z,23.33
2018-05-11T16:09:22.912Z,23.35
2018-05-11T16:11:50.472Z,23.43
2018-05-11T16:14:18.074Z,23.38
2018-05-11T16:16:45.757Z,23.36
2018-05-11T16:19:13.585Z,23.14
2018-05-11T16:21:41.156Z,22.91
2018-05-11T16:24:08.733Z,22.68
2018-05-11T16:26:36.418Z,22.55
2018-05-11T16:29:04.260Z,22.30
2018-05-11T16:31:31.833Z,22.12
2018-05-11T16:33:59.420Z,21.98
2018-05-11T16:36:27.175Z,21.92
2018-05-11T16:38:54.747Z,21.82
2018-05-11T16:41:22.337Z,21.75
2018-05-11T16:43:49.936Z,21.65
2018-05-11T16:46:17.563Z,21.50
2018-05-11T16:48:45.140Z,21.40
2018-05-11T16:51:12.834Z,21.27
2018-05-11T16:53:40.369Z,21.23
2018-05-11T16:56:08.025Z,21.25
2018-05-11T16:58:35.594Z,21.28
2018-05-11T17:01:03.284Z,21.27
2018-05-11T17:03:31.082Z,21.17
2018-05-11T17:05:58.798Z,21.11
2018-05-11T17:08:26.518Z,21.05
2018-05-11T17:10:54.369Z,20.94
2018-05-11T17:13:21.961Z,20.80
2018-05-11T17:15:49.532Z,20.67
2018-05-11T17:18:17.085Z,20.43
2018-05-11T17:20:44.937Z,20.21
2018-05-11T17:23:12.757Z,19.99
2018-05-11T17:25:40.485Z,19.80
2018-05-11T17:28:08.219Z,19.63
2018-05-11T17:30:36.015Z,19.47
2018-05-11T17:33:03.835Z,19.33
2018-05-11T17:35:31.413Z,19.23
2018-05-11T17:37:59.024Z,19.10
2018-05-11T17:40:26.611Z,19.03
2018-05-11T17:42:54.270Z,18.96
2018-05-11T17:45:21.844Z,18.88
2018-05-11T17:47:49.645Z,18.75
2018-05-11T17:50:17.232Z,18.70
2018-05-11T17:52:45.043Z,18.68
2018-05-11T17:55:12.620Z,18.65
2018-05-11T17:57:40.416Z,18.57
2018-05-11T18:00:08.075Z,18.49
2018-05-11T18:02:35.647Z,18.43
2018-05-11T18:05:03.365Z,18.41
2018-05-11T18:07:30.945Z,18.41
2018-05-11T18:09:58.539Z,18.35
2018-05-11T18:12:26.169Z,18.33
2018-05-11T18:14:53.830Z,18.30
2018-05-11T18:17:21.655Z,18.31
2018-05-11T18:19:49.477Z,18.27
2018-05-11T18:22:17.083Z,18.27
2018-05-11T18:24:44.709Z,18.23
2018-05-11T18:27:12.286Z,18.26
2018-05-11T18:29:39.867Z,18.24
2018-05-11T18:32:07.456Z,18.20
2018-05-11T18:34:35.284Z,18.16
2018-05-11T18:37:02.865Z,18.14
2018-05-11T18:39:30.595Z,18.10
2018-05-11T18:41:58.232Z,18.05
2018-05-11T18:44:25.805Z,17.91
2018-05-11T18:46:53.426Z,17.81
2018-05-11T18:49:21.191Z,17.80
2018-05-11T18:51:48.810Z,17.75
2018-05-11T18:54:16.815Z,17.72
2018-05-11T18:56:44.346Z,17.66
2018-05-11T18:59:12.032Z,17.66
2018-05-11T19:01:39.853Z,17.58
2018-05-11T19:04:07.397Z,17.54
2018-05-11T19:06:35.224Z,17.45
2018-05-11T19:09:02.928Z,17.39
2018-05-11T19:11:30.546Z,17.35
2018-05-11T19:13:58.044Z,17.24
2018-05-11T19:16:25.654Z,17.08
2018-05-11T19:18:53.230Z,16.93
2018-05-11T19:21:20.861Z,16.92
2018-05-11T19:23:48.420Z,16.88
2018-05-11T19:26:15.992Z,16.84
2018-05-11T19:28:43.633Z,16.76
2018-05-11T19:31:11.207Z,16.62
2018-05-11T19:33:38.861Z,16.59
2018-05-11T19:36:06.634Z,16.59
2018-05-11T19:38:34.250Z,16.47
2018-05-11T19:41:01.826Z,16.37
2018-05-11T19:43:29.479Z,16.33
2018-05-11T19:45:57.207Z,16.30
2018-05-11T19:48:24.778Z,16.28
2018-05-11T19:50:52.397Z,16.26
2018-05-11T19:53:19.973Z,16.23
2018-05-11T19:55:47.536Z,16.19
2018-05-11T19:58:15.296Z,16.17
2018-05-11T20:00:43.115Z,16.06
2018-05-11T20:03:10.686Z,15.91
2018-05-11T20:05:38.248Z,15.81
2018-05-11T20:08:05.889Z,15.76
2018-05-11T20:10:33.477Z,15.76
2018-05-11T20:13:01.308Z,15.71
2018-05-11T20:15:29.124Z,15.69
2018-05-11T20:17:56.737Z,15.65
2018-05-11T20:20:24.563Z,15.62
2018-05-11T20:22:52.129Z,15.56
2018-05-11T20:25:19.744Z,15.52
2018-05-11T20:27:47.406Z,15.48
2018-05-11T20:30:14.980Z,15.43
2018-05-11T20:32:42.641Z,15.41
2018-05-11T20:35:10.372Z,15.38
2018-05-11T20:37:37.987Z,15.40
2018-05-11T20:40:05.580Z,15.48
2018-05-11T20:42:33.186Z,15.47
2018-05-11T20:45:00.753Z,15.47
2018-05-11T20:47:28.559Z,15.46
2018-05-11T20:49:56.194Z,15.42
2018-05-11T20:52:24.228Z,15.35
2018-05-11T20:54:52.144Z,15.31
2018-05-11T20:57:19.967Z,15.27
2018-05-11T20:59:47.983Z,15.18
2018-05-11T21:02:15.856Z,15.19
2018-05-11T21:04:43.803Z,15.17
2018-05-11T21:07:11.739Z,15.15
2018-05-11T21:09:39.579Z,15.10
2018-05-11T21:12:07.476Z,15.06
2018-05-11T21:14:36.085Z,15.01
2018-05-11T21:17:04.014Z,14.98
2018-05-11T21:19:31.839Z,14.89
2018-05-11T21:21:59.885Z,14.88
2018-05-11T21:24:27.875Z,14.85
2018-05-11T21:26:55.693Z,14.80
2018-05-11T21:29:23.713Z,14.72
2018-05-11T21:31:51.558Z,14.66
2018-05-11T21:34:19.445Z,14.65
2018-05-11T21:36:47.369Z,14.61
2018-05-11T21:39:15.277Z,14.54
2018-05-11T21:41:43.252Z,14.47
2018-05-11T21:44:11.227Z,14.41
2018-05-11T21:46:39.144Z,14.35
2018-05-11T21:49:06.956Z,14.29
2018-05-11T21:51:34.783Z,14.30
2018-05-11T21:54:02.599Z,14.22
2018-05-11T21:56:30.512Z,14.22
2018-05-11T21:58:58.429Z,14.22
2018-05-11T22:01:26.257Z,14.21
2018-05-11T22:03:54.175Z,14.25
2018-05-11T22:06:22.087Z,14.20
2018-05-11T22:08:49.631Z,14.24
2018-05-11T22:11:17.245Z,14.16
2018-05-11T22:13:44.827Z,14.07
2018-05-11T22:16:12.382Z,13.98
2018-05-11T22:18:39.951Z,13.96
2018-05-11T22:21:07.550Z,13.96
2018-05-11T22:23:35.112Z,13.90
2018-05-11T22:26:02.707Z,13.91
2018-05-11T22:28:30.342Z,13.88
2018-05-11T22:30:57.888Z,13.88
2018-05-11T22:33:25.457Z,13.87
2018-05-11T22:35:53.047Z,13.83
2018-05-11T22:38:20.615Z,13.84
2018-05-11T22:40:48.208Z,13.86
2018-05-11T22:43:15.787Z,13.84
2018-05-11T22:45:43.443Z,13.85
2018-05-11T22:48:11.003Z,13.84
2018-05-11T22:50:38.562Z,13.84
2018-05-11T22:53:06.133Z,13.74
2018-05-11T22:55:33.724Z,13.68
2018-05-11T22:58:01.290Z,13.65
2018-05-11T23:00:37.342Z,13.65
2018-05-11T23:03:04.976Z,13.60
2018-05-11T23:05:32.549Z,13.59
2018-05-11T23:08:00.125Z,13.59
2018-05-11T23:10:27.705Z,13.60
2018-05-11T23:12:55.289Z,13.60
2018-05-11T23:15:22.865Z,13.61
2018-05-11T23:17:50.429Z,13.59
2018-05-11T23:20:18.088Z,13.53
2018-05-11T23:22:45.740Z,13.43
2018-05-11T23:25:13.352Z,13.37
2018-05-11T23:27:40.998Z,13.31
2018-05-11T23:30:08.567Z,13.26
2018-05-11T23:32:36.123Z,13.28
2018-05-11T23:35:03.760Z,13.26
2018-05-11T23:37:31.370Z,13.24
2018-05-11T23:39:58.896Z,13.14
2018-05-11T23:42:26.488Z,13.09
2018-05-11T23:44:54.076Z,13.04
2018-05-11T23:47:21.619Z,13.01
2018-05-11T23:49:49.210Z,12.94
2018-05-11T23:52:16.780Z,12.90
2018-05-11T23:54:44.401Z,12.92
2018-05-11T23:57:11.986Z,12.86
2018-05-11T23:59:39.569Z,12.80
